• Join FlightAware (Why Join?)
  • Login
  • US Flag 
08:39AM EDT


 

Airport Tracker/Info


-or-


 

Live Flight TrackerFlight Track Log ✈ CHQ5098 ✈ 10-Jun-2013 ✈ KORD - KGRB

Flight Track Log - Related Links

Times and Time Zones

All times are in EDT time to prevent confusion due to time zone crossing. See the CHQ5098 flight status page for this flight to view local times or setup timezone preferences in your user account.

Time Position Orientation Groundspeed Altitude Reporting Facility
EDT Latitude Longitude Course Direction KTS MPH feet Rate Location/Type
09:57PM 42.0167 -87.8500 North 197 227 2,900  Level Chicago TRACON
09:57PM 42.0364 -87.8211 47° Northeast 218 251 4,200 1,080 Climbing Chicago Center
09:58PM 42.1044 -87.8019 12° North 252 290 4,800 360 Climbing Chicago Center
09:59PM 42.2059 -87.9779 340° North  Level FlightAware Approximate
09:59PM 42.1731 -87.8000 North 250 288 5,000  Level Chicago Center
10:00PM 42.2865 -88.0008 350° North  Level FlightAware Approximate
10:00PM 42.2572 -87.7981 North 254 292 6,700  Level Chicago Center
10:01PM 42.3669 -88.0251 340° North  Level FlightAware Approximate
10:01PM 42.3292 -87.8011 358° North 256 295 9,700  Level Chicago Center
10:02PM 42.4435 -88.0500 North  Level FlightAware Approximate
10:03PM 42.4061 -87.8111 355° North 274 315 12,100  Level Chicago Center
10:04PM 42.4800 -87.8228 353° North 267 307 14,000 900 Climbing Chicago Center
10:05PM 42.5672 -87.8356 354° North 320 368 14,000  Level Chicago Center
10:06PM 42.6631 -87.8497 354° North 344 396 14,000  Level Chicago Center
10:07PM 42.7594 -87.8644 354° North 348 400 14,000  Level Chicago Center
10:08PM 42.8714 -87.8808 354° North 346 398 14,000  Level Chicago Center
10:09PM 42.9636 -87.8950 354° North 336 387 14,000  Level Chicago Center
10:10PM 43.0550 -87.9081 354° North 332 382 14,000  Level Chicago Center
10:11PM 43.1486 -87.9228 353° North 339 390 14,000  Level Chicago Center
10:12PM 43.2461 -87.9372 354° North 351 404 14,000  Level Chicago Center
10:13PM 43.3431 -87.9511 354° North 351 404 14,000  Level Chicago Center
10:14PM 43.4564 -87.9686 354° North 354 407 14,000 -420 Level Chicago Center
10:15PM 43.5525 -87.9833 354° North 351 404 13,200 -960 Descending Chicago Center
10:16PM 43.6458 -87.9989 353° North 341 392 12,100 -1,080 Descending Chicago Center
10:17PM 43.7406 -88.0122 354° North 342 394 11,100 -1,080 Descending Chicago Center
10:18PM 43.8364 -88.0283 353° North 347 399 10,000 -780 Descending Chicago Center
10:18PM 43.8831 -88.0342 355° North 346 398 10,000  Level Minneapolis Center
10:19PM 43.9739 -88.0494 353° North 334 384 10,000  Level Minneapolis Center
10:20PM 44.0647 -88.0656 353° North 328 377 10,000 -60 Level Minneapolis Center
10:21PM 44.1542 -88.0833 352° North 328 377 9,900 -1,380 Descending Minneapolis Center
10:22PM 44.2344 -88.0969 353° North 258 297 7,200 -2,580 Descending Minneapolis Center
10:23PM 44.3047 -88.1128 351° North 254 292 4,700 -2,340 Descending Minneapolis Center
10:24PM 44.3719 -88.1264 352° North 250 288 2,500 -2,220 Descending Minneapolis Center